sensor_id;sensor_type;location;lat;lon;timestamp;pressure;altitude;pressure_sealevel;temperature;humidity
66742;BME280;53654;54.152;19.432;2022-07-06T00:01:05;101863.19;;;13.69;91.71
66742;BME280;53654;54.152;19.432;2022-07-06T00:03:33;101866.88;;;13.66;91.93
66742;BME280;53654;54.152;19.432;2022-07-06T00:06:02;101863.38;;;13.63;91.85
66742;BME280;53654;54.152;19.432;2022-07-06T00:08:30;101864.98;;;13.59;91.86
66742;BME280;53654;54.152;19.432;2022-07-06T00:10:58;101863.93;;;13.56;92.15
66742;BME280;53654;54.152;19.432;2022-07-06T00:13:27;101863.59;;;13.52;92.11
66742;BME280;53654;54.152;19.432;2022-07-06T00:15:55;101860.80;;;13.48;92.26
66742;BME280;53654;54.152;19.432;2022-07-06T00:18:23;101862.04;;;13.46;92.35
66742;BME280;53654;54.152;19.432;2022-07-06T00:20:52;101860.11;;;13.43;92.42
66742;BME280;53654;54.152;19.432;2022-07-06T00:23:20;101861.52;;;13.40;92.24
66742;BME280;53654;54.152;19.432;2022-07-06T00:25:48;101856.98;;;13.37;92.33
66742;BME280;53654;54.152;19.432;2022-07-06T00:28:17;101856.80;;;13.37;92.56
66742;BME280;53654;54.152;19.432;2022-07-06T00:30:46;101854.70;;;13.36;92.52
66742;BME280;53654;54.152;19.432;2022-07-06T00:33:14;101848.73;;;13.35;92.47
66742;BME280;53654;54.152;19.432;2022-07-06T00:35:42;101849.45;;;13.33;92.53
66742;BME280;53654;54.152;19.432;2022-07-06T00:38:11;101845.07;;;13.31;92.59
66742;BME280;53654;54.152;19.432;2022-07-06T00:40:40;101844.20;;;13.28;92.70
66742;BME280;53654;54.152;19.432;2022-07-06T00:43:08;101841.23;;;13.24;92.71
66742;BME280;53654;54.152;19.432;2022-07-06T00:45:37;101838.27;;;13.20;92.77
66742;BME280;53654;54.152;19.432;2022-07-06T00:48:06;101830.89;;;13.16;93.10
66742;BME280;53654;54.152;19.432;2022-07-06T00:50:34;101828.42;;;13.13;92.95
66742;BME280;53654;54.152;19.432;2022-07-06T00:53:04;101830.71;;;13.11;92.96
66742;BME280;53654;54.152;19.432;2022-07-06T00:55:35;101824.94;;;13.08;93.35
66742;BME280;53654;54.152;19.432;2022-07-06T00:58:05;101825.29;;;13.07;93.40
66742;BME280;53654;54.152;19.432;2022-07-06T01:00:34;101824.41;;;13.05;93.46
66742;BME280;53654;54.152;19.432;2022-07-06T01:03:02;101824.77;;;13.04;93.39
66742;BME280;53654;54.152;19.432;2022-07-06T01:05:31;101819.52;;;13.02;93.31
66742;BME280;53654;54.152;19.432;2022-07-06T01:07:59;101825.82;;;13.00;93.30
66742;BME280;53654;54.152;19.432;2022-07-06T01:10:28;101828.10;;;12.98;93.41
66742;BME280;53654;54.152;19.432;2022-07-06T01:12:57;101824.60;;;12.97;93.51
66742;BME280;53654;54.152;19.432;2022-07-06T01:15:26;101823.38;;;12.95;93.63
66742;BME280;53654;54.152;19.432;2022-07-06T01:17:54;101824.77;;;12.93;93.66
66742;BME280;53654;54.152;19.432;2022-07-06T01:20:25;101829.33;;;12.91;93.75
66742;BME280;53654;54.152;19.432;2022-07-06T01:22:54;101828.98;;;12.89;93.72
66742;BME280;53654;54.152;19.432;2022-07-06T01:25:24;101830.39;;;12.88;93.72
66742;BME280;53654;54.152;19.432;2022-07-06T01:27:52;101830.39;;;12.86;93.58
66742;BME280;53654;54.152;19.432;2022-07-06T01:30:20;101829.34;;;12.83;93.47
66742;BME280;53654;54.152;19.432;2022-07-06T01:32:50;101831.09;;;12.82;93.52
66742;BME280;53654;54.152;19.432;2022-07-06T01:35:18;101829.87;;;12.81;93.45
66742;BME280;53654;54.152;19.432;2022-07-06T01:37:47;101829.34;;;12.79;93.34
66742;BME280;53654;54.152;19.432;2022-07-06T01:40:15;101831.27;;;12.78;93.68
66742;BME280;53654;54.152;19.432;2022-07-06T01:42:43;101830.21;;;12.77;93.75
66742;BME280;53654;54.152;19.432;2022-07-06T01:45:11;101829.86;;;12.74;93.71
66742;BME280;53654;54.152;19.432;2022-07-06T01:47:41;101832.32;;;12.73;93.89
66742;BME280;53654;54.152;19.432;2022-07-06T01:50:10;101830.04;;;12.71;93.96
66742;BME280;53654;54.152;19.432;2022-07-06T01:52:42;101831.44;;;12.72;94.05
66742;BME280;53654;54.152;19.432;2022-07-06T01:55:10;101827.23;;;12.72;94.10
66742;BME280;53654;54.152;19.432;2022-07-06T01:57:39;101823.56;;;12.71;94.38
66742;BME280;53654;54.152;19.432;2022-07-06T02:00:10;101829.86;;;12.70;94.41
66742;BME280;53654;54.152;19.432;2022-07-06T02:02:43;101828.46;;;12.70;94.40
66742;BME280;53654;54.152;19.432;2022-07-06T02:05:12;101830.57;;;12.69;94.60
66742;BME280;53654;54.152;19.432;2022-07-06T02:07:40;101829.86;;;12.68;94.50
66742;BME280;53654;54.152;19.432;2022-07-06T02:10:09;101833.37;;;12.68;94.63
66742;BME280;53654;54.152;19.432;2022-07-06T02:12:37;101834.24;;;12.66;94.51
66742;BME280;53654;54.152;19.432;2022-07-06T02:15:06;101831.44;;;12.65;94.60
66742;BME280;53654;54.152;19.432;2022-07-06T02:17:34;101827.41;;;12.64;94.67
66742;BME280;53654;54.152;19.432;2022-07-06T02:20:04;101828.29;;;12.63;94.68
66742;BME280;53654;54.152;19.432;2022-07-06T02:22:33;101828.29;;;12.62;94.74
66742;BME280;53654;54.152;19.432;2022-07-06T02:25:01;101832.66;;;12.62;94.89
66742;BME280;53654;54.152;19.432;2022-07-06T02:27:31;101829.86;;;12.60;95.04
66742;BME280;53654;54.152;19.432;2022-07-06T02:30:00;101828.46;;;12.59;95.01
66742;BME280;53654;54.152;19.432;2022-07-06T02:32:31;101834.41;;;12.59;95.03
66742;BME280;53654;54.152;19.432;2022-07-06T02:35:00;101836.86;;;12.58;95.19
66742;BME280;53654;54.152;19.432;2022-07-06T02:37:28;101839.48;;;12.58;95.23
66742;BME280;53654;54.152;19.432;2022-07-06T02:39:56;101838.27;;;12.57;95.20
66742;BME280;53654;54.152;19.432;2022-07-06T02:42:25;101834.77;;;12.58;95.26
66742;BME280;53654;54.152;19.432;2022-07-06T02:44:54;101829.86;;;12.58;95.30
66742;BME280;53654;54.152;19.432;2022-07-06T02:47:22;101824.09;;;12.57;95.24
66742;BME280;53654;54.152;19.432;2022-07-06T02:49:50;101824.96;;;12.57;95.41
66742;BME280;53654;54.152;19.432;2022-07-06T02:52:19;101830.91;;;12.59;95.53
66742;BME280;53654;54.152;19.432;2022-07-06T02:54:47;101836.70;;;12.61;95.49
66742;BME280;53654;54.152;19.432;2022-07-06T02:57:17;101841.06;;;12.62;95.68
66742;BME280;53654;54.152;19.432;2022-07-06T02:59:45;101836.34;;;12.63;95.69
66742;BME280;53654;54.152;19.432;2022-07-06T03:02:13;101834.77;;;12.65;95.80
66742;BME280;53654;54.152;19.432;2022-07-06T03:04:42;101829.16;;;12.67;95.76
66742;BME280;53654;54.152;19.432;2022-07-06T03:07:10;101821.46;;;12.69;95.81
66742;BME280;53654;54.152;19.432;2022-07-06T03:09:38;101816.39;;;12.70;95.82
66742;BME280;53654;54.152;19.432;2022-07-06T03:12:07;101819.54;;;12.72;95.85
66742;BME280;53654;54.152;19.432;2022-07-06T03:14:35;101823.04;;;12.73;95.90
66742;BME280;53654;54.152;19.432;2022-07-06T03:17:05;101820.59;;;12.75;96.13
66742;BME280;53654;54.152;19.432;2022-07-06T03:19:33;101825.31;;;12.78;96.11
66742;BME280;53654;54.152;19.432;2022-07-06T03:22:01;101819.36;;;12.80;96.06
66742;BME280;53654;54.152;19.432;2022-07-06T03:24:30;101818.48;;;12.83;96.06
66742;BME280;53654;54.152;19.432;2022-07-06T03:26:58;101818.65;;;12.87;96.15
66742;BME280;53654;54.152;19.432;2022-07-06T03:29:27;101817.08;;;12.90;96.04
66742;BME280;53654;54.152;19.432;2022-07-06T03:31:55;101816.73;;;12.94;96.02
66742;BME280;53654;54.152;19.432;2022-07-06T03:34:25;101812.16;;;12.98;95.87
66742;BME280;53654;54.152;19.432;2022-07-06T03:36:53;101810.23;;;13.02;96.06
66742;BME280;53654;54.152;19.432;2022-07-06T03:39:21;101807.42;;;13.06;96.12
66742;BME280;53654;54.152;19.432;2022-07-06T03:41:50;101810.74;;;13.11;95.97
66742;BME280;53654;54.152;19.432;2022-07-06T03:44:19;101806.36;;;13.15;96.17
66742;BME280;53654;54.152;19.432;2022-07-06T03:46:48;101807.95;;;13.21;96.10
66742;BME280;53654;54.152;19.432;2022-07-06T03:49:18;101809.33;;;13.29;96.12
66742;BME280;53654;54.152;19.432;2022-07-06T03:51:46;101802.47;;;13.36;96.15
66742;BME280;53654;54.152;19.432;2022-07-06T03:54:14;101796.84;;;13.44;96.07
66742;BME280;53654;54.152;19.432;2022-07-06T03:56:43;101796.63;;;13.50;96.04
66742;BME280;53654;54.152;19.432;2022-07-06T03:59:13;101797.65;;;13.58;95.83
66742;BME280;53654;54.152;19.432;2022-07-06T04:01:42;101795.15;;;13.70;95.80
66742;BME280;53654;54.152;19.432;2022-07-06T04:04:12;101793.30;;;13.87;95.87
66742;BME280;53654;54.152;19.432;2022-07-06T04:06:43;101794.95;;;14.04;95.36
66742;BME280;53654;54.152;19.432;2022-07-06T04:09:11;101789.05;;;14.22;95.18
66742;BME280;53654;54.152;19.432;2022-07-06T04:11:40;101784.90;;;14.38;94.81
66742;BME280;53654;54.152;19.432;2022-07-06T04:14:08;101791.97;;;14.58;94.46
66742;BME280;53654;54.152;19.432;2022-07-06T04:16:36;101793.28;;;14.68;93.95
66742;BME280;53654;54.152;19.432;2022-07-06T04:19:04;101789.88;;;14.75;93.43
66742;BME280;53654;54.152;19.432;2022-07-06T04:21:33;101785.61;;;14.80;92.95
66742;BME280;53654;54.152;19.432;2022-07-06T04:24:01;101785.50;;;14.92;92.68
66742;BME280;53654;54.152;19.432;2022-07-06T04:26:29;101783.30;;;15.17;92.14
66742;BME280;53654;54.152;19.432;2022-07-06T04:28:58;101782.22;;;15.35;91.14
66742;BME280;53654;54.152;19.432;2022-07-06T04:31:26;101780.02;;;15.42;90.33
66742;BME280;53654;54.152;19.432;2022-07-06T04:33:55;101777.05;;;15.41;89.89
66742;BME280;53654;54.152;19.432;2022-07-06T04:36:24;101774.95;;;15.55;89.83
66742;BME280;53654;54.152;19.432;2022-07-06T04:38:53;101776.11;;;15.79;89.48
66742;BME280;53654;54.152;19.432;2022-07-06T04:41:22;101772.80;;;16.23;89.23
66742;BME280;53654;54.152;19.432;2022-07-06T04:43:50;101767.66;;;16.79;88.08
66742;BME280;53654;54.152;19.432;2022-07-06T04:46:19;101770.79;;;17.37;86.70
66742;BME280;53654;54.152;19.432;2022-07-06T04:48:49;101770.59;;;17.96;84.92
66742;BME280;53654;54.152;19.432;2022-07-06T04:51:22;101769.33;;;18.70;83.11
66742;BME280;53654;54.152;19.432;2022-07-06T04:53:50;101766.77;;;19.38;80.67
66742;BME280;53654;54.152;19.432;2022-07-06T04:56:19;101765.69;;;19.98;78.42
66742;BME280;53654;54.152;19.432;2022-07-06T04:58:48;101760.10;;;20.45;75.67
66742;BME280;53654;54.152;19.432;2022-07-06T05:01:18;101751.90;;;20.73;73.69
66742;BME280;53654;54.152;19.432;2022-07-06T05:03:47;101750.13;;;21.13;71.47
66742;BME280;53654;54.152;19.432;2022-07-06T05:06:16;101749.58;;;21.66;69.23
66742;BME280;53654;54.152;19.432;2022-07-06T05:08:46;101745.94;;;22.17;66.74
66742;BME280;53654;54.152;19.432;2022-07-06T05:11:14;101742.77;;;22.76;65.35
66742;BME280;53654;54.152;19.432;2022-07-06T05:13:42;101734.40;;;23.32;63.31
66742;BME280;53654;54.152;19.432;2022-07-06T05:16:11;101737.92;;;23.86;61.16
66742;BME280;53654;54.152;19.432;2022-07-06T05:18:39;101733.70;;;24.32;59.48
66742;BME280;53654;54.152;19.432;2022-07-06T05:21:07;101729.06;;;24.74;57.95
66742;BME280;53654;54.152;19.432;2022-07-06T05:23:36;101727.35;;;25.16;55.35
66742;BME280;53654;54.152;19.432;2022-07-06T05:26:05;101730.33;;;25.53;54.16
66742;BME280;53654;54.152;19.432;2022-07-06T05:28:33;101726.98;;;25.81;52.51
66742;BME280;53654;54.152;19.432;2022-07-06T05:31:04;101729.48;;;25.97;51.05
66742;BME280;53654;54.152;19.432;2022-07-06T05:33:32;101724.57;;;26.02;49.74
66742;BME280;53654;54.152;19.432;2022-07-06T05:36:01;101720.08;;;26.15;49.49
66742;BME280;53654;54.152;19.432;2022-07-06T05:38:29;101723.02;;;26.29;49.53
66742;BME280;53654;54.152;19.432;2022-07-06T05:40:57;101723.83;;;26.54;48.52
66742;BME280;53654;54.152;19.432;2022-07-06T05:43:25;101723.58;;;26.68;47.77
66742;BME280;53654;54.152;19.432;2022-07-06T05:45:54;101724.48;;;26.79;47.51
66742;BME280;53654;54.152;19.432;2022-07-06T05:48:23;101723.13;;;26.89;46.83
66742;BME280;53654;54.152;19.432;2022-07-06T05:51:10;101714.73;;;27.04;47.32
66742;BME280;53654;54.152;19.432;2022-07-06T05:53:39;101708.57;;;27.22;46.56
66742;BME280;53654;54.152;19.432;2022-07-06T05:56:07;101708.20;;;27.31;46.46
66742;BME280;53654;54.152;19.432;2022-07-06T05:58:36;101707.25;;;27.54;46.08
66742;BME280;53654;54.152;19.432;2022-07-06T06:01:05;101701.00;;;27.68;45.07
66742;BME280;53654;54.152;19.432;2022-07-06T06:03:36;101699.35;;;27.76;45.03
66742;BME280;53654;54.152;19.432;2022-07-06T06:06:05;101703.23;;;27.85;44.50
66742;BME280;53654;54.152;19.432;2022-07-06T06:08:33;101703.73;;;27.97;44.04
66742;BME280;53654;54.152;19.432;2022-07-06T06:11:01;101704.69;;;28.04;44.03
66742;BME280;53654;54.152;19.432;2022-07-06T06:13:37;101703.88;;;28.19;43.86
66742;BME280;53654;54.152;19.432;2022-07-06T06:16:05;101702.61;;;28.35;43.51
66742;BME280;53654;54.152;19.432;2022-07-06T06:18:35;101704.74;;;28.46;42.54
66742;BME280;53654;54.152;19.432;2022-07-06T06:21:09;101703.85;;;28.51;41.37
66742;BME280;53654;54.152;19.432;2022-07-06T06:23:37;101702.70;;;28.58;41.77
66742;BME280;53654;54.152;19.432;2022-07-06T06:26:06;101697.30;;;28.63;41.53
66742;BME280;53654;54.152;19.432;2022-07-06T06:28:34;101700.02;;;28.70;41.37
66742;BME280;53654;54.152;19.432;2022-07-06T06:31:04;101698.78;;;28.77;41.39
66742;BME280;53654;54.152;19.432;2022-07-06T06:33:33;101697.51;;;28.86;40.82
66742;BME280;53654;54.152;19.432;2022-07-06T06:36:01;101695.77;;;28.90;40.60
66742;BME280;53654;54.152;19.432;2022-07-06T06:38:29;101688.94;;;28.82;40.54
66742;BME280;53654;54.152;19.432;2022-07-06T06:40:57;101688.10;;;28.79;40.83
66742;BME280;53654;54.152;19.432;2022-07-06T06:43:25;101690.34;;;28.77;39.96
66742;BME280;53654;54.152;19.432;2022-07-06T06:46:14;101689.61;;;28.75;39.42
66742;BME280;53654;54.152;19.432;2022-07-06T06:48:42;101689.75;;;28.60;39.81
66742;BME280;53654;54.152;19.432;2022-07-06T06:51:10;101690.55;;;28.43;39.77
66742;BME280;53654;54.152;19.432;2022-07-06T06:53:38;101690.27;;;28.21;40.00
66742;BME280;53654;54.152;19.432;2022-07-06T06:56:07;101691.33;;;27.92;40.92
66742;BME280;53654;54.152;19.432;2022-07-06T06:58:36;101689.08;;;27.66;41.98
66742;BME280;53654;54.152;19.432;2022-07-06T07:01:24;101691.45;;;27.54;42.06
66742;BME280;53654;54.152;19.432;2022-07-06T07:03:52;101692.20;;;27.26;42.10
66742;BME280;53654;54.152;19.432;2022-07-06T07:06:21;101693.02;;;27.08;42.41
66742;BME280;53654;54.152;19.432;2022-07-06T07:08:49;101692.84;;;26.90;42.77
66742;BME280;53654;54.152;19.432;2022-07-06T07:11:18;101695.57;;;26.75;42.39
66742;BME280;53654;54.152;19.432;2022-07-06T07:13:46;101688.40;;;26.66;42.56
66742;BME280;53654;54.152;19.432;2022-07-06T07:16:14;101692.05;;;26.68;42.99
66742;BME280;53654;54.152;19.432;2022-07-06T07:18:43;101691.93;;;26.67;42.84
66742;BME280;53654;54.152;19.432;2022-07-06T07:21:11;101694.73;;;26.65;42.52
66742;BME280;53654;54.152;19.432;2022-07-06T07:23:39;101694.70;;;26.69;42.56
66742;BME280;53654;54.152;19.432;2022-07-06T07:26:07;101694.02;;;26.71;42.22
66742;BME280;53654;54.152;19.432;2022-07-06T07:28:35;101693.63;;;26.83;42.65
66742;BME280;53654;54.152;19.432;2022-07-06T07:31:04;101691.48;;;26.86;41.59
66742;BME280;53654;54.152;19.432;2022-07-06T07:33:33;101692.74;;;26.83;41.77
66742;BME280;53654;54.152;19.432;2022-07-06T07:36:02;101693.48;;;26.85;41.56
66742;BME280;53654;54.152;19.432;2022-07-06T07:38:30;101689.98;;;26.84;41.74
66742;BME280;53654;54.152;19.432;2022-07-06T07:40:58;101695.86;;;26.73;41.78
66742;BME280;53654;54.152;19.432;2022-07-06T07:43:26;101694.88;;;26.62;42.26
66742;BME280;53654;54.152;19.432;2022-07-06T07:45:54;101692.38;;;26.59;41.98
66742;BME280;53654;54.152;19.432;2022-07-06T07:48:23;101697.86;;;26.57;41.90
66742;BME280;53654;54.152;19.432;2022-07-06T07:50:51;101697.18;;;26.45;41.70
66742;BME280;53654;54.152;19.432;2022-07-06T07:53:19;101693.00;;;26.25;41.86
66742;BME280;53654;54.152;19.432;2022-07-06T07:55:47;101692.85;;;26.00;42.27
66742;BME280;53654;54.152;19.432;2022-07-06T07:58:16;101687.48;;;25.72;42.74
66742;BME280;53654;54.152;19.432;2022-07-06T08:00:45;101687.27;;;25.44;42.67
66742;BME280;53654;54.152;19.432;2022-07-06T08:03:13;101691.45;;;25.10;43.01
66742;BME280;53654;54.152;19.432;2022-07-06T08:05:42;101686.11;;;24.80;43.18
66742;BME280;53654;54.152;19.432;2022-07-06T08:08:10;101692.41;;;24.55;44.85
66742;BME280;53654;54.152;19.432;2022-07-06T08:10:38;101692.74;;;24.48;44.84
66742;BME280;53654;54.152;19.432;2022-07-06T08:13:26;101688.54;;;24.33;45.19
66742;BME280;53654;54.152;19.432;2022-07-06T08:15:54;101685.11;;;24.16;45.53
66742;BME280;53654;54.152;19.432;2022-07-06T08:18:22;101684.80;;;23.94;45.91
66742;BME280;53654;54.152;19.432;2022-07-06T08:20:51;101688.27;;;23.77;46.18
66742;BME280;53654;54.152;19.432;2022-07-06T08:23:41;101679.39;;;23.62;46.37
66742;BME280;53654;54.152;19.432;2022-07-06T08:26:09;101675.70;;;23.53;46.97
66742;BME280;53654;54.152;19.432;2022-07-06T08:28:44;101674.05;;;23.47;46.49
66742;BME280;53654;54.152;19.432;2022-07-06T08:31:12;101677.67;;;23.45;46.52
66742;BME280;53654;54.152;19.432;2022-07-06T08:34:01;101674.99;;;23.45;46.37
66742;BME280;53654;54.152;19.432;2022-07-06T08:36:29;101673.05;;;23.42;46.88
66742;BME280;53654;54.152;19.432;2022-07-06T08:38:57;101665.15;;;23.42;47.47
66742;BME280;53654;54.152;19.432;2022-07-06T08:41:28;101665.02;;;23.50;47.20
66742;BME280;53654;54.152;19.432;2022-07-06T08:43:57;101666.41;;;23.50;47.27
66742;BME280;53654;54.152;19.432;2022-07-06T08:46:27;101666.94;;;23.58;47.26
66742;BME280;53654;54.152;19.432;2022-07-06T08:48:56;101666.15;;;23.67;46.68
66742;BME280;53654;54.152;19.432;2022-07-06T08:51:25;101668.94;;;23.76;46.83
66742;BME280;53654;54.152;19.432;2022-07-06T08:53:57;101670.05;;;23.92;47.05
66742;BME280;53654;54.152;19.432;2022-07-06T08:56:27;101667.82;;;24.16;47.34
66742;BME280;53654;54.152;19.432;2022-07-06T08:58:56;101664.85;;;24.36;46.94
66742;BME280;53654;54.152;19.432;2022-07-06T09:01:25;101660.11;;;24.55;46.44
66742;BME280;53654;54.152;19.432;2022-07-06T09:03:54;101661.84;;;24.76;45.56
66742;BME280;53654;54.152;19.432;2022-07-06T09:06:24;101663.56;;;24.91;45.72
66742;BME280;53654;54.152;19.432;2022-07-06T09:08:55;101660.02;;;25.01;45.11
66742;BME280;53654;54.152;19.432;2022-07-06T09:11:24;101663.08;;;25.07;44.30
66742;BME280;53654;54.152;19.432;2022-07-06T09:13:53;101660.84;;;25.05;43.64
66742;BME280;53654;54.152;19.432;2022-07-06T09:16:26;101658.33;;;24.92;43.79
66742;BME280;53654;54.152;19.432;2022-07-06T09:19:07;101655.50;;;24.71;43.39
66742;BME280;53654;54.152;19.432;2022-07-06T09:21:35;101661.35;;;24.65;44.28
66742;BME280;53654;54.152;19.432;2022-07-06T09:24:08;101659.30;;;24.47;44.46
66742;BME280;53654;54.152;19.432;2022-07-06T09:26:37;101657.21;;;24.21;44.31
66742;BME280;53654;54.152;19.432;2022-07-06T09:29:05;101655.63;;;23.96;44.24
66742;BME280;53654;54.152;19.432;2022-07-06T09:31:34;101657.30;;;23.69;44.14
66742;BME280;53654;54.152;19.432;2022-07-06T09:34:07;101647.98;;;23.41;44.19
66742;BME280;53654;54.152;19.432;2022-07-06T09:41:58;101659.85;;;22.72;46.03
66742;BME280;53654;54.152;19.432;2022-07-06T09:47:02;101652.75;;;22.48;46.97
66742;BME280;53654;54.152;19.432;2022-07-06T09:49:31;101646.75;;;22.55;48.29
66742;BME280;53654;54.152;19.432;2022-07-06T09:52:05;101639.13;;;22.74;48.46
66742;BME280;53654;54.152;19.432;2022-07-06T09:54:34;101637.33;;;22.91;47.70
66742;BME280;53654;54.152;19.432;2022-07-06T09:57:05;101634.48;;;22.95;47.90
66742;BME280;53654;54.152;19.432;2022-07-06T09:59:37;101631.33;;;23.02;46.88
66742;BME280;53654;54.152;19.432;2022-07-06T10:02:07;101633.27;;;22.94;46.38
66742;BME280;53654;54.152;19.432;2022-07-06T10:04:36;101637.52;;;22.83;46.24
66742;BME280;53654;54.152;19.432;2022-07-06T10:07:06;101637.00;;;22.70;45.91
66742;BME280;53654;54.152;19.432;2022-07-06T10:09:35;101639.13;;;22.59;45.99
66742;BME280;53654;54.152;19.432;2022-07-06T10:12:06;101636.80;;;22.47;45.98
66742;BME280;53654;54.152;19.432;2022-07-06T10:14:40;101637.33;;;22.31;45.72
66742;BME280;53654;54.152;19.432;2022-07-06T10:17:15;101632.67;;;22.07;47.35
66742;BME280;53654;54.152;19.432;2022-07-06T10:19:44;101643.41;;;21.87;47.80
66742;BME280;53654;54.152;19.432;2022-07-06T10:22:13;101644.63;;;21.71;48.90
66742;BME280;53654;54.152;19.432;2022-07-06T10:24:42;101640.50;;;21.58;49.57
66742;BME280;53654;54.152;19.432;2022-07-06T10:27:12;101638.69;;;21.50;50.48
66742;BME280;53654;54.152;19.432;2022-07-06T10:29:40;101638.06;;;21.58;51.16
66742;BME280;53654;54.152;19.432;2022-07-06T10:32:09;101636.27;;;21.67;50.14
66742;BME280;53654;54.152;19.432;2022-07-06T10:34:38;101635.50;;;21.72;50.02
66742;BME280;53654;54.152;19.432;2022-07-06T10:37:22;101632.62;;;21.73;49.52
66742;BME280;53654;54.152;19.432;2022-07-06T10:39:51;101638.53;;;21.68;49.78
66742;BME280;53654;54.152;19.432;2022-07-06T10:42:49;101640.02;;;21.71;50.12
66742;BME280;53654;54.152;19.432;2022-07-06T10:48:16;101682.20;;;21.36;49.63
66742;BME280;53654;54.152;19.432;2022-07-06T10:53:15;101687.12;;;20.75;49.77
66742;BME280;53654;54.152;19.432;2022-07-06T10:55:46;101692.09;;;20.54;49.88
66742;BME280;53654;54.152;19.432;2022-07-06T10:58:50;101691.84;;;20.30;50.35
66742;BME280;53654;54.152;19.432;2022-07-06T11:01:27;101696.10;;;20.03;50.46
66742;BME280;53654;54.152;19.432;2022-07-06T11:06:25;101687.35;;;19.78;52.06
66742;BME280;53654;54.152;19.432;2022-07-06T11:14:07;101677.26;;;20.00;53.12
66742;BME280;53654;54.152;19.432;2022-07-06T11:16:39;101674.88;;;20.17;52.66
66742;BME280;53654;54.152;19.432;2022-07-06T11:19:11;101677.04;;;20.32;53.00
66742;BME280;53654;54.152;19.432;2022-07-06T11:21:51;101683.13;;;20.47;52.76
66742;BME280;53654;54.152;19.432;2022-07-06T11:24:22;101677.09;;;20.57;53.77
66742;BME280;53654;54.152;19.432;2022-07-06T11:26:52;101676.86;;;20.69;53.07
66742;BME280;53654;54.152;19.432;2022-07-06T11:29:22;101675.34;;;20.76;53.13
66742;BME280;53654;54.152;19.432;2022-07-06T11:31:53;101678.40;;;20.80;52.53
66742;BME280;53654;54.152;19.432;2022-07-06T11:34:27;101676.78;;;20.86;52.41
66742;BME280;53654;54.152;19.432;2022-07-06T11:37:02;101674.25;;;20.93;51.41
66742;BME280;53654;54.152;19.432;2022-07-06T11:39:36;101668.32;;;21.00;51.21
66742;BME280;53654;54.152;19.432;2022-07-06T11:42:05;101671.33;;;21.09;51.36
66742;BME280;53654;54.152;19.432;2022-07-06T11:44:34;101673.79;;;21.19;51.28
66742;BME280;53654;54.152;19.432;2022-07-06T11:47:04;101674.83;;;21.20;49.97
66742;BME280;53654;54.152;19.432;2022-07-06T11:49:36;101673.36;;;21.12;49.61
66742;BME280;53654;54.152;19.432;2022-07-06T11:52:08;101673.94;;;21.01;49.68
66742;BME280;53654;54.152;19.432;2022-07-06T11:54:37;101680.14;;;20.91;50.85
66742;BME280;53654;54.152;19.432;2022-07-06T11:57:08;101681.64;;;20.84;50.12
66742;BME280;53654;54.152;19.432;2022-07-06T11:59:39;101684.98;;;20.75;50.58
66742;BME280;53654;54.152;19.432;2022-07-06T12:02:09;101684.17;;;20.57;50.67
66742;BME280;53654;54.152;19.432;2022-07-06T12:04:41;101688.02;;;20.44;51.13
66742;BME280;53654;54.152;19.432;2022-07-06T12:07:12;101685.68;;;20.34;51.75
66742;BME280;53654;54.152;19.432;2022-07-06T12:09:43;101689.08;;;20.27;52.47
66742;BME280;53654;54.152;19.432;2022-07-06T12:12:12;101690.96;;;20.24;52.48
66742;BME280;53654;54.152;19.432;2022-07-06T12:14:41;101696.17;;;20.17;52.48
66742;BME280;53654;54.152;19.432;2022-07-06T12:17:11;101691.18;;;20.07;52.62
66742;BME280;53654;54.152;19.432;2022-07-06T12:19:41;101690.02;;;19.99;53.46
66742;BME280;53654;54.152;19.432;2022-07-06T12:22:10;101691.75;;;19.95;54.57
66742;BME280;53654;54.152;19.432;2022-07-06T12:24:42;101693.44;;;19.92;55.18
66742;BME280;53654;54.152;19.432;2022-07-06T12:29:43;101691.95;;;19.89;56.58
66742;BME280;53654;54.152;19.432;2022-07-06T12:32:19;101691.47;;;19.88;56.73
66742;BME280;53654;54.152;19.432;2022-07-06T12:35:02;101686.45;;;19.84;57.52
66742;BME280;53654;54.152;19.432;2022-07-06T12:37:31;101682.21;;;19.78;57.12
66742;BME280;53654;54.152;19.432;2022-07-06T12:39:59;101685.55;;;19.74;56.70
66742;BME280;53654;54.152;19.432;2022-07-06T12:42:28;101690.84;;;19.75;56.03
66742;BME280;53654;54.152;19.432;2022-07-06T12:44:57;101687.02;;;19.77;55.44
66742;BME280;53654;54.152;19.432;2022-07-06T12:47:25;101684.89;;;19.77;54.95
66742;BME280;53654;54.152;19.432;2022-07-06T12:50:08;101683.59;;;19.79;54.69
66742;BME280;53654;54.152;19.432;2022-07-06T12:52:38;101687.36;;;19.83;54.62
66742;BME280;53654;54.152;19.432;2022-07-06T12:55:07;101688.85;;;19.87;53.40
66742;BME280;53654;54.152;19.432;2022-07-06T12:57:45;101685.84;;;19.86;53.09
66742;BME280;53654;54.152;19.432;2022-07-06T13:00:15;101680.12;;;19.83;52.53
66742;BME280;53654;54.152;19.432;2022-07-06T13:02:46;101676.47;;;19.81;53.62
66742;BME280;53654;54.152;19.432;2022-07-06T13:05:34;101672.21;;;19.81;53.52
66742;BME280;53654;54.152;19.432;2022-07-06T13:08:04;101675.89;;;19.82;53.23
66742;BME280;53654;54.152;19.432;2022-07-06T13:10:32;101678.36;;;19.83;53.94
66742;BME280;53654;54.152;19.432;2022-07-06T13:13:01;101678.10;;;19.85;54.37
66742;BME280;53654;54.152;19.432;2022-07-06T13:15:30;101677.67;;;19.87;54.29
66742;BME280;53654;54.152;19.432;2022-07-06T13:17:58;101682.33;;;19.91;53.71